Главная страница
METAR-TAF:

METAR-TAF

Аэропорты :

Гибралтар, Гибралтар

широта: 36-09N, долгота: 005-21W, высота над уровнем моря: 5 м

Текущие метеонаблюдения

Эта сводка был подготовлена 53 минут назад, в 22:50 UTC
Ветер 6 Узел от восточно-северо-восточный
Температура 23°C
Влажность 94%
Давление 1019 hPa
Видимость: 9000 м

METAR: LXGB 212250Z AUTO 07006KT 9000 // OVC005/// 23/22 Q1019

Время: 01:43 (23:43 UTC)

Прогноз

Эта сводка был подготовлена 7 часа и 15 минут назад, в 16:28 UTC
Прогноз действительный с 21-го 18 UTC до 21-го 22 UTC
Ветер 8 Узел от восточный
Видимость 10 км и более
небольшая облачность на высоте 1200 фута
временами
С 21-го 18 UTC до 21-го 22 UTC
Видимость: 6000 м
небольшая облачность на высоте 500 фута
Рассеянная облачность на высоте 1000 фута
мгла

TAF: LXGB 211628Z 2118/2122 08008KT 9999 FEW012 TEMPO 2118/2122 6000 HZ FEW005 BKN010

Метеонаблюдения и прогнозы для более 4000 аэропортов (сводки METAR и TAF).

Имеющиеся станции представлены на карте желтыми и красными точками.

Чтобы увидеть название станции, наведите на нее мышь.

Затем щелкните, чтобы увидеть метеонаблюдения и метеопрогнозы.

Управление картой: чтобы увеличить масштаб, щелкните зеленые кнопки с черным крестиком; чтобы уменьшить масштаб, щелкните зеленую кнопку с тире; для просмотра соседних карт щелкайте зеленые стрелки.


METAR-TAF: